sensor_id;sensor_type;location;lat;lon;timestamp;pressure;altitude;pressure_sealevel;temperature;humidity
3444;BME280;1736;52.068;6.968;2023-04-16T00:02:21;101473.09;;;7.65;100.00
3444;BME280;1736;52.068;6.968;2023-04-16T00:04:48;101469.63;;;7.65;100.00
3444;BME280;1736;52.068;6.968;2023-04-16T00:07:15;101475.56;;;7.68;100.00
3444;BME280;1736;52.068;6.968;2023-04-16T00:09:42;101479.97;;;7.68;100.00
3444;BME280;1736;52.068;6.968;2023-04-16T00:12:10;101476.59;;;7.66;100.00
3444;BME280;1736;52.068;6.968;2023-04-16T00:14:37;101473.88;;;7.67;100.00
3444;BME280;1736;52.068;6.968;2023-04-16T00:17:03;101480.75;;;7.70;100.00
3444;BME280;1736;52.068;6.968;2023-04-16T00:19:30;101482.38;;;7.72;100.00
3444;BME280;1736;52.068;6.968;2023-04-16T00:21:56;101479.72;;;7.72;100.00
3444;BME280;1736;52.068;6.968;2023-04-16T00:24:23;101476.13;;;7.73;100.00
3444;BME280;1736;52.068;6.968;2023-04-16T00:26:51;101480.47;;;7.74;100.00
3444;BME280;1736;52.068;6.968;2023-04-16T00:29:17;101476.69;;;7.78;100.00
3444;BME280;1736;52.068;6.968;2023-04-16T00:31:44;101470.84;;;7.73;100.00
3444;BME280;1736;52.068;6.968;2023-04-16T00:34:10;101477.56;;;7.79;100.00
3444;BME280;1736;52.068;6.968;2023-04-16T00:36:37;101478.03;;;7.85;100.00
3444;BME280;1736;52.068;6.968;2023-04-16T00:39:04;101470.28;;;7.82;100.00
3444;BME280;1736;52.068;6.968;2023-04-16T00:41:30;101482.75;;;7.80;100.00
3444;BME280;1736;52.068;6.968;2023-04-16T00:43:58;101487.28;;;7.78;100.00
3444;BME280;1736;52.068;6.968;2023-04-16T00:46:25;101488.63;;;7.85;100.00
3444;BME280;1736;52.068;6.968;2023-04-16T00:48:52;101491.81;;;7.90;100.00
3444;BME280;1736;52.068;6.968;2023-04-16T00:51:20;101493.72;;;7.88;100.00
3444;BME280;1736;52.068;6.968;2023-04-16T00:53:47;101491.31;;;7.99;100.00
3444;BME280;1736;52.068;6.968;2023-04-16T00:56:14;101491.16;;;7.87;100.00
3444;BME280;1736;52.068;6.968;2023-04-16T00:58:41;101487.41;;;7.91;100.00
3444;BME280;1736;52.068;6.968;2023-04-16T01:01:09;101492.59;;;7.92;100.00
3444;BME280;1736;52.068;6.968;2023-04-16T01:03:41;101493.56;;;7.91;100.00
3444;BME280;1736;52.068;6.968;2023-04-16T01:06:08;101482.78;;;7.94;100.00
3444;BME280;1736;52.068;6.968;2023-04-16T01:08:35;101493.09;;;7.99;100.00
3444;BME280;1736;52.068;6.968;2023-04-16T01:11:01;101503.91;;;7.94;100.00
3444;BME280;1736;52.068;6.968;2023-04-16T01:13:28;101501.97;;;7.98;100.00
3444;BME280;1736;52.068;6.968;2023-04-16T01:15:55;101503.09;;;7.94;100.00
3444;BME280;1736;52.068;6.968;2023-04-16T01:18:23;101507.25;;;7.98;100.00
3444;BME280;1736;52.068;6.968;2023-04-16T01:20:54;101499.09;;;8.01;100.00
3444;BME280;1736;52.068;6.968;2023-04-16T01:23:20;101509.59;;;8.02;100.00
3444;BME280;1736;52.068;6.968;2023-04-16T01:25:47;101507.91;;;8.01;100.00
3444;BME280;1736;52.068;6.968;2023-04-16T01:28:13;101519.78;;;7.94;100.00
3444;BME280;1736;52.068;6.968;2023-04-16T01:30:40;101519.59;;;7.97;100.00
3444;BME280;1736;52.068;6.968;2023-04-16T01:33:07;101524.50;;;8.03;100.00
3444;BME280;1736;52.068;6.968;2023-04-16T01:35:33;101526.03;;;8.07;100.00
3444;BME280;1736;52.068;6.968;2023-04-16T01:38:02;101520.94;;;8.04;100.00
3444;BME280;1736;52.068;6.968;2023-04-16T01:40:28;101521.13;;;8.01;100.00
3444;BME280;1736;52.068;6.968;2023-04-16T01:42:55;101520.16;;;8.02;100.00
3444;BME280;1736;52.068;6.968;2023-04-16T01:45:22;101522.81;;;8.02;100.00
3444;BME280;1736;52.068;6.968;2023-04-16T01:47:49;101528.38;;;7.98;100.00
3444;BME280;1736;52.068;6.968;2023-04-16T01:50:16;101518.47;;;8.01;100.00
3444;BME280;1736;52.068;6.968;2023-04-16T01:52:43;101521.13;;;8.01;100.00
3444;BME280;1736;52.068;6.968;2023-04-16T01:55:11;101526.03;;;8.07;100.00
3444;BME280;1736;52.068;6.968;2023-04-16T01:57:38;101518.31;;;8.04;100.00
3444;BME280;1736;52.068;6.968;2023-04-16T02:00:06;101515.28;;;8.10;100.00
3444;BME280;1736;52.068;6.968;2023-04-16T02:02:33;101519.53;;;8.13;100.00
3444;BME280;1736;52.068;6.968;2023-04-16T02:05:00;101517.16;;;8.08;100.00
3444;BME280;1736;52.068;6.968;2023-04-16T02:07:27;101517.16;;;8.08;100.00
3444;BME280;1736;52.068;6.968;2023-04-16T02:09:56;101520.56;;;8.10;100.00
3444;BME280;1736;52.068;6.968;2023-04-16T02:12:24;101516.88;;;8.13;100.00
3444;BME280;1736;52.068;6.968;2023-04-16T02:14:51;101516.63;;;8.17;100.00
3444;BME280;1736;52.068;6.968;2023-04-16T02:17:17;101514.16;;;8.14;100.00
3444;BME280;1736;52.068;6.968;2023-04-16T02:19:44;101510.75;;;8.12;100.00
3444;BME280;1736;52.068;6.968;2023-04-16T02:22:10;101510.94;;;8.09;100.00
3444;BME280;1736;52.068;6.968;2023-04-16T02:24:37;101506.22;;;8.14;100.00
3444;BME280;1736;52.068;6.968;2023-04-16T02:27:03;101515.66;;;8.18;100.00
3444;BME280;1736;52.068;6.968;2023-04-16T02:29:31;101511.16;;;8.20;100.00
3444;BME280;1736;52.068;6.968;2023-04-16T02:31:58;101510.78;;;8.26;100.00
3444;BME280;1736;52.068;6.968;2023-04-16T02:34:24;101512.19;;;8.18;100.00
3444;BME280;1736;52.068;6.968;2023-04-16T02:36:51;101514.06;;;8.16;100.00
3444;BME280;1736;52.068;6.968;2023-04-16T02:39:18;101515.09;;;8.13;100.00
3444;BME280;1736;52.068;6.968;2023-04-16T02:41:45;101519.06;;;8.20;100.00
3444;BME280;1736;52.068;6.968;2023-04-16T02:44:11;101518.16;;;8.21;100.00
3444;BME280;1736;52.068;6.968;2023-04-16T02:46:39;101515.34;;;8.24;100.00
3444;BME280;1736;52.068;6.968;2023-04-16T02:49:05;101507.72;;;8.18;100.00
3444;BME280;1736;52.068;6.968;2023-04-16T02:54:54;101517.66;;;8.15;100.00
3444;BME280;1736;52.068;6.968;2023-04-16T02:57:20;101516.63;;;8.17;100.00
3444;BME280;1736;52.068;6.968;2023-04-16T02:59:47;101522.41;;;8.24;100.00
3444;BME280;1736;52.068;6.968;2023-04-16T03:02:15;101526.28;;;8.32;100.00
3444;BME280;1736;52.068;6.968;2023-04-16T03:04:41;101524.09;;;8.25;100.00
3444;BME280;1736;52.068;6.968;2023-04-16T03:07:08;101526.47;;;8.29;100.00
3444;BME280;1736;52.068;6.968;2023-04-16T03:09:35;101531.59;;;8.32;100.00
3444;BME280;1736;52.068;6.968;2023-04-16T03:12:01;101532.31;;;8.34;100.00
3444;BME280;1736;52.068;6.968;2023-04-16T03:14:28;101532.81;;;8.27;100.00
3444;BME280;1736;52.068;6.968;2023-04-16T03:16:55;101527.22;;;8.31;100.00
3444;BME280;1736;52.068;6.968;2023-04-16T03:19:23;101532.72;;;8.28;100.00
3444;BME280;1736;52.068;6.968;2023-04-16T03:21:50;101528.34;;;8.27;100.00
3444;BME280;1736;52.068;6.968;2023-04-16T03:24:16;101535.53;;;8.25;100.00
3444;BME280;1736;52.068;6.968;2023-04-16T03:26:43;101532.38;;;8.19;100.00
3444;BME280;1736;52.068;6.968;2023-04-16T03:29:09;101535.97;;;8.18;100.00
3444;BME280;1736;52.068;6.968;2023-04-16T03:31:36;101536.06;;;8.16;100.00
3444;BME280;1736;52.068;6.968;2023-04-16T03:34:02;101535.72;;;8.22;100.00
3444;BME280;1736;52.068;6.968;2023-04-16T03:36:30;101540.41;;;8.17;100.00
3444;BME280;1736;52.068;6.968;2023-04-16T03:38:57;101529.84;;;8.17;100.00
3444;BME280;1736;52.068;6.968;2023-04-16T03:41:24;101539.13;;;8.24;100.00
3444;BME280;1736;52.068;6.968;2023-04-16T03:43:50;101527.38;;;8.14;100.00
3444;BME280;1736;52.068;6.968;2023-04-16T03:46:17;101536.06;;;8.16;100.00
3444;BME280;1736;52.068;6.968;2023-04-16T03:48:43;101528.88;;;8.18;100.00
3444;BME280;1736;52.068;6.968;2023-04-16T03:51:10;101535.53;;;8.25;100.00
3444;BME280;1736;52.068;6.968;2023-04-16T03:53:38;101542.53;;;8.26;100.00
3444;BME280;1736;52.068;6.968;2023-04-16T03:56:05;101537.59;;;8.20;100.00
3444;BME280;1736;52.068;6.968;2023-04-16T03:58:31;101541.56;;;8.27;100.00
3444;BME280;1736;52.068;6.968;2023-04-16T04:00:58;101540.81;;;8.25;100.00
3444;BME280;1736;52.068;6.968;2023-04-16T04:03:24;101538.19;;;8.25;100.00
3444;BME280;1736;52.068;6.968;2023-04-16T04:05:51;101541.00;;;8.22;100.00
3444;BME280;1736;52.068;6.968;2023-04-16T04:08:18;101545.47;;;8.22;100.00
3444;BME280;1736;52.068;6.968;2023-04-16T04:10:46;101545.59;;;8.19;100.00
3444;BME280;1736;52.068;6.968;2023-04-16T04:13:13;101551.41;;;8.25;100.00
3444;BME280;1736;52.068;6.968;2023-04-16T04:15:39;101545.34;;;8.23;100.00
3444;BME280;1736;52.068;6.968;2023-04-16T04:18:06;101544.66;;;8.20;100.00
3444;BME280;1736;52.068;6.968;2023-04-16T04:20:32;101545.94;;;8.28;100.00
3444;BME280;1736;52.068;6.968;2023-04-16T04:22:59;101548.50;;;8.30;100.00
3444;BME280;1736;52.068;6.968;2023-04-16T04:25:25;101546.97;;;8.26;100.00
3444;BME280;1736;52.068;6.968;2023-04-16T04:27:53;101544.34;;;8.26;100.00
3444;BME280;1736;52.068;6.968;2023-04-16T04:30:20;101552.16;;;8.27;100.00
3444;BME280;1736;52.068;6.968;2023-04-16T04:32:46;101551.50;;;8.24;100.00
3444;BME280;1736;52.068;6.968;2023-04-16T04:35:13;101556.88;;;8.22;100.00
3444;BME280;1736;52.068;6.968;2023-04-16T04:37:40;101563.03;;;8.37;100.00
3444;BME280;1736;52.068;6.968;2023-04-16T04:40:08;101562.53;;;8.30;100.00
3444;BME280;1736;52.068;6.968;2023-04-16T04:42:36;101568.97;;;8.26;100.00
3444;BME280;1736;52.068;6.968;2023-04-16T04:45:05;101566.31;;;8.26;100.00
3444;BME280;1736;52.068;6.968;2023-04-16T04:47:32;101566.34;;;8.40;100.00
3444;BME280;1736;52.068;6.968;2023-04-16T04:50:06;101569.66;;;8.30;100.00
3444;BME280;1736;52.068;6.968;2023-04-16T04:52:32;101575.59;;;8.33;100.00
3444;BME280;1736;52.068;6.968;2023-04-16T04:54:59;101574.25;;;8.26;100.00
3444;BME280;1736;52.068;6.968;2023-04-16T04:57:26;101572.94;;;8.33;100.00
3444;BME280;1736;52.068;6.968;2023-04-16T04:59:58;101583.44;;;8.35;100.00
3444;BME280;1736;52.068;6.968;2023-04-16T05:02:28;101585.50;;;8.30;100.00
3444;BME280;1736;52.068;6.968;2023-04-16T05:04:55;101587.88;;;8.34;100.00
3444;BME280;1736;52.068;6.968;2023-04-16T05:07:21;101589.06;;;8.29;100.00
3444;BME280;1736;52.068;6.968;2023-04-16T05:09:48;101585.59;;;8.42;100.00
3444;BME280;1736;52.068;6.968;2023-04-16T05:12:15;101590.59;;;8.33;100.00
3444;BME280;1736;52.068;6.968;2023-04-16T05:14:41;101595.88;;;8.33;100.00
3444;BME280;1736;52.068;6.968;2023-04-16T05:17:08;101596.34;;;8.25;100.00
3444;BME280;1736;52.068;6.968;2023-04-16T05:19:36;101599.22;;;8.36;100.00
3444;BME280;1736;52.068;6.968;2023-04-16T05:22:02;101607.41;;;8.32;100.00
3444;BME280;1736;52.068;6.968;2023-04-16T05:24:30;101608.28;;;8.32;100.00
3444;BME280;1736;52.068;6.968;2023-04-16T05:26:56;101608.84;;;8.37;100.00
3444;BME280;1736;52.068;6.968;2023-04-16T05:29:23;101610.53;;;8.38;100.00
3444;BME280;1736;52.068;6.968;2023-04-16T05:31:49;101616.22;;;8.46;100.00
3444;BME280;1736;52.068;6.968;2023-04-16T05:34:16;101617.59;;;8.38;100.00
3444;BME280;1736;52.068;6.968;2023-04-16T05:36:44;101624.72;;;8.51;100.00
3444;BME280;1736;52.068;6.968;2023-04-16T05:39:11;101631.59;;;8.40;100.00
3444;BME280;1736;52.068;6.968;2023-04-16T05:41:37;101634.38;;;8.52;100.00
3444;BME280;1736;52.068;6.968;2023-04-16T05:44:04;101631.91;;;8.49;100.00
3444;BME280;1736;52.068;6.968;2023-04-16T05:46:30;101641.38;;;8.53;100.00
3444;BME280;1736;52.068;6.968;2023-04-16T05:48:57;101634.66;;;8.48;100.00
3444;BME280;1736;52.068;6.968;2023-04-16T05:51:23;101633.13;;;8.58;100.00
3444;BME280;1736;52.068;6.968;2023-04-16T05:53:53;101638.91;;;8.50;100.00
3444;BME280;1736;52.068;6.968;2023-04-16T05:56:19;101642.88;;;8.57;100.00
3444;BME280;1736;52.068;6.968;2023-04-16T05:58:46;101638.63;;;8.55;100.00
3444;BME280;1736;52.068;6.968;2023-04-16T06:01:12;101643.47;;;8.62;100.00
3444;BME280;1736;52.068;6.968;2023-04-16T06:03:39;101646.09;;;8.62;100.00
3444;BME280;1736;52.068;6.968;2023-04-16T06:06:05;101643.72;;;8.58;100.00
3444;BME280;1736;52.068;6.968;2023-04-16T06:08:33;101648.97;;;8.73;100.00
3444;BME280;1736;52.068;6.968;2023-04-16T06:11:01;101645.19;;;8.77;100.00
3444;BME280;1736;52.068;6.968;2023-04-16T06:13:28;101644.78;;;8.83;100.00
3444;BME280;1736;52.068;6.968;2023-04-16T06:15:55;101641.75;;;8.75;100.00
3444;BME280;1736;52.068;6.968;2023-04-16T06:18:22;101652.91;;;8.80;100.00
3444;BME280;1736;52.068;6.968;2023-04-16T06:20:49;101657.06;;;8.84;100.00
3444;BME280;1736;52.068;6.968;2023-04-16T06:23:15;101650.78;;;8.87;100.00
3444;BME280;1736;52.068;6.968;2023-04-16T06:25:42;101655.84;;;8.90;100.00
3444;BME280;1736;52.068;6.968;2023-04-16T06:28:09;101659.19;;;8.93;100.00
3444;BME280;1736;52.068;6.968;2023-04-16T06:30:36;101662.66;;;8.94;100.00
3444;BME280;1736;52.068;6.968;2023-04-16T06:33:03;101665.88;;;8.85;100.00
3444;BME280;1736;52.068;6.968;2023-04-16T06:35:29;101667.31;;;8.90;100.00
3444;BME280;1736;52.068;6.968;2023-04-16T06:37:56;101669.38;;;8.85;100.00
3444;BME280;1736;52.068;6.968;2023-04-16T06:40:22;101672.78;;;8.87;100.00
3444;BME280;1736;52.068;6.968;2023-04-16T06:42:49;101678.63;;;8.92;100.00
3444;BME280;1736;52.068;6.968;2023-04-16T06:45:17;101677.50;;;8.96;100.00
3444;BME280;1736;52.068;6.968;2023-04-16T06:47:43;101681.56;;;8.88;100.00
3444;BME280;1736;52.068;6.968;2023-04-16T06:50:10;101676.56;;;8.83;100.00
3444;BME280;1736;52.068;6.968;2023-04-16T06:52:36;101680.34;;;9.07;100.00
3444;BME280;1736;52.068;6.968;2023-04-16T06:55:04;101682.06;;;8.94;100.00
3444;BME280;1736;52.068;6.968;2023-04-16T06:57:32;101683.00;;;8.93;100.00
3444;BME280;1736;52.068;6.968;2023-04-16T06:59:58;101688.66;;;8.87;100.00
3444;BME280;1736;52.068;6.968;2023-04-16T07:02:26;101692.63;;;9.08;100.00
3444;BME280;1736;52.068;6.968;2023-04-16T07:04:53;101690.19;;;9.05;100.00
3444;BME280;1736;52.068;6.968;2023-04-16T07:07:19;101696.34;;;9.20;100.00
3444;BME280;1736;52.068;6.968;2023-04-16T07:09:46;101698.69;;;9.10;100.00
3444;BME280;1736;52.068;6.968;2023-04-16T07:12:12;101698.59;;;9.26;100.00
3444;BME280;1736;52.068;6.968;2023-04-16T07:14:40;101705.50;;;9.28;100.00
3444;BME280;1736;52.068;6.968;2023-04-16T07:17:06;101697.84;;;9.24;100.00
3444;BME280;1736;52.068;6.968;2023-04-16T07:19:34;101711.09;;;9.24;100.00
3444;BME280;1736;52.068;6.968;2023-04-16T07:22:01;101709.84;;;9.15;100.00
3444;BME280;1736;52.068;6.968;2023-04-16T07:24:28;101703.22;;;9.08;100.00
3444;BME280;1736;52.068;6.968;2023-04-16T07:26:54;101711.25;;;9.07;100.00
3444;BME280;1736;52.068;6.968;2023-04-16T07:29:21;101715.34;;;8.98;100.00
3444;BME280;1736;52.068;6.968;2023-04-16T07:31:47;101707.22;;;9.01;100.00
3444;BME280;1736;52.068;6.968;2023-04-16T07:34:14;101703.91;;;9.12;100.00
3444;BME280;1736;52.068;6.968;2023-04-16T07:36:42;101704.56;;;9.15;100.00
3444;BME280;1736;52.068;6.968;2023-04-16T07:39:08;101707.59;;;9.23;100.00
3444;BME280;1736;52.068;6.968;2023-04-16T07:41:37;101713.75;;;9.24;100.00
3444;BME280;1736;52.068;6.968;2023-04-16T07:44:04;101709.97;;;9.28;100.00
3444;BME280;1736;52.068;6.968;2023-04-16T07:46:31;101713.63;;;9.39;100.00
3444;BME280;1736;52.068;6.968;2023-04-16T07:48:58;101712.88;;;9.51;99.31
3444;BME280;1736;52.068;6.968;2023-04-16T07:51:24;101714.38;;;9.55;98.95
3444;BME280;1736;52.068;6.968;2023-04-16T07:53:52;101715.88;;;9.59;98.55
3444;BME280;1736;52.068;6.968;2023-04-16T07:56:19;101717.66;;;9.73;97.86
3444;BME280;1736;52.068;6.968;2023-04-16T07:58:46;101730.41;;;9.80;97.16
3444;BME280;1736;52.068;6.968;2023-04-16T08:01:12;101731.41;;;9.92;96.81
3444;BME280;1736;52.068;6.968;2023-04-16T08:03:39;101731.69;;;10.15;95.08
3444;BME280;1736;52.068;6.968;2023-04-16T08:06:05;101736.28;;;10.26;94.63
3444;BME280;1736;52.068;6.968;2023-04-16T08:08:32;101736.56;;;10.21;94.64
3444;BME280;1736;52.068;6.968;2023-04-16T08:11:00;101730.66;;;10.30;94.88
3444;BME280;1736;52.068;6.968;2023-04-16T08:13:26;101731.34;;;10.46;94.57
3444;BME280;1736;52.068;6.968;2023-04-16T08:15:53;101745.19;;;10.52;94.46
3444;BME280;1736;52.068;6.968;2023-04-16T08:18:19;101745.38;;;10.48;93.85
3444;BME280;1736;52.068;6.968;2023-04-16T08:20:46;101745.28;;;10.50;93.13
3444;BME280;1736;52.068;6.968;2023-04-16T08:23:12;101749.81;;;10.48;93.13
3444;BME280;1736;52.068;6.968;2023-04-16T08:25:39;101755.06;;;10.62;94.02
3444;BME280;1736;52.068;6.968;2023-04-16T08:28:07;101761.28;;;11.00;91.99
3444;BME280;1736;52.068;6.968;2023-04-16T08:30:34;101751.78;;;10.84;90.56
3444;BME280;1736;52.068;6.968;2023-04-16T08:33:01;101762.16;;;11.01;91.19
3444;BME280;1736;52.068;6.968;2023-04-16T08:35:27;101758.00;;;11.09;92.25
3444;BME280;1736;52.068;6.968;2023-04-16T08:37:54;101763.31;;;11.34;89.53
3444;BME280;1736;52.068;6.968;2023-04-16T08:40:23;101767.78;;;11.21;90.47
3444;BME280;1736;52.068;6.968;2023-04-16T08:42:52;101769.47;;;11.35;88.40
3444;BME280;1736;52.068;6.968;2023-04-16T08:45:21;101765.00;;;11.10;89.23
3444;BME280;1736;52.068;6.968;2023-04-16T08:47:49;101775.53;;;11.12;88.72
3444;BME280;1736;52.068;6.968;2023-04-16T08:50:21;101774.59;;;11.38;88.83
3444;BME280;1736;52.068;6.968;2023-04-16T08:52:50;101779.91;;;11.63;88.41
3444;BME280;1736;52.068;6.968;2023-04-16T08:55:18;101785.09;;;11.27;86.61
3444;BME280;1736;52.068;6.968;2023-04-16T08:57:50;101789.69;;;11.50;86.76
3444;BME280;1736;52.068;6.968;2023-04-16T09:00:18;101789.44;;;11.53;87.85
3444;BME280;1736;52.068;6.968;2023-04-16T09:02:47;101787.53;;;11.80;86.44
3444;BME280;1736;52.068;6.968;2023-04-16T09:05:14;101784.16;;;11.78;85.96
3444;BME280;1736;52.068;6.968;2023-04-16T09:07:43;101796.13;;;11.96;85.05
3444;BME280;1736;52.068;6.968;2023-04-16T09:10:10;101778.50;;;12.06;84.43
3444;BME280;1736;52.068;6.968;2023-04-16T09:12:38;101786.06;;;12.12;84.91
3444;BME280;1736;52.068;6.968;2023-04-16T09:15:06;101786.75;;;12.26;84.20
3444;BME280;1736;52.068;6.968;2023-04-16T09:17:35;101795.22;;;12.44;84.51
3444;BME280;1736;52.068;6.968;2023-04-16T09:20:04;101790.22;;;12.39;80.80
3444;BME280;1736;52.068;6.968;2023-04-16T09:22:33;101794.16;;;12.81;80.10
3444;BME280;1736;52.068;6.968;2023-04-16T09:24:59;101788.88;;;12.92;79.91
3444;BME280;1736;52.068;6.968;2023-04-16T09:27:26;101788.00;;;12.91;81.14
3444;BME280;1736;52.068;6.968;2023-04-16T09:29:53;101794.41;;;13.12;78.18
3444;BME280;1736;52.068;6.968;2023-04-16T09:32:24;101785.25;;;13.38;77.84
3444;BME280;1736;52.068;6.968;2023-04-16T09:34:56;101797.44;;;13.19;77.58
3444;BME280;1736;52.068;6.968;2023-04-16T09:37:24;101802.31;;;13.25;76.95
3444;BME280;1736;52.068;6.968;2023-04-16T09:39:55;101799.88;;;13.22;78.24
3444;BME280;1736;52.068;6.968;2023-04-16T09:42:24;101803.75;;;13.18;76.97
3444;BME280;1736;52.068;6.968;2023-04-16T09:44:53;101804.59;;;12.84;77.70
3444;BME280;1736;52.068;6.968;2023-04-16T09:47:23;101808.34;;;12.92;77.97
3444;BME280;1736;52.068;6.968;2023-04-16T09:49:49;101803.72;;;13.07;77.70
3444;BME280;1736;52.068;6.968;2023-04-16T09:52:24;101799.38;;;13.17;77.54
3444;BME280;1736;52.068;6.968;2023-04-16T09:54:52;101813.16;;;13.00;76.64
3444;BME280;1736;52.068;6.968;2023-04-16T09:57:25;101803.59;;;13.08;79.03
3444;BME280;1736;52.068;6.968;2023-04-16T09:59:52;101801.75;;;12.98;78.39
3444;BME280;1736;52.068;6.968;2023-04-16T10:02:25;101801.69;;;13.10;78.60
3444;BME280;1736;52.068;6.968;2023-04-16T10:04:52;101810.34;;;13.47;75.92
3444;BME280;1736;52.068;6.968;2023-04-16T10:07:19;101805.22;;;13.33;76.08
3444;BME280;1736;52.068;6.968;2023-04-16T10:09:48;101812.44;;;13.20;77.38
3444;BME280;1736;52.068;6.968;2023-04-16T10:12:16;101806.31;;;13.41;75.07
3444;BME280;1736;52.068;6.968;2023-04-16T10:14:43;101810.03;;;13.28;74.91
3444;BME280;1736;52.068;6.968;2023-04-16T10:17:10;101807.44;;;13.61;75.75
3444;BME280;1736;52.068;6.968;2023-04-16T10:19:36;101809.38;;;13.59;75.40
3444;BME280;1736;52.068;6.968;2023-04-16T10:22:04;101807.31;;;13.73;73.12
3444;BME280;1736;52.068;6.968;2023-04-16T10:24:31;101810.59;;;13.77;74.11
3444;BME280;1736;52.068;6.968;2023-04-16T10:27:00;101813.75;;;13.71;74.10
3444;BME280;1736;52.068;6.968;2023-04-16T10:29:28;101816.16;;;13.41;74.29
3444;BME280;1736;52.068;6.968;2023-04-16T10:31:55;101809.59;;;13.89;74.13
3444;BME280;1736;52.068;6.968;2023-04-16T10:34:23;101812.50;;;13.97;72.73
3444;BME280;1736;52.068;6.968;2023-04-16T10:36:51;101811.53;;;14.09;72.99
3444;BME280;1736;52.068;6.968;2023-04-16T10:39:20;101819.78;;;14.39;70.74
3444;BME280;1736;52.068;6.968;2023-04-16T10:41:47;101814.31;;;14.29;70.36
3444;BME280;1736;52.068;6.968;2023-04-16T10:44:16;101804.97;;;14.35;71.08
3444;BME280;1736;52.068;6.968;2023-04-16T10:46:43;101809.91;;;14.50;70.32
3444;BME280;1736;52.068;6.968;2023-04-16T10:49:14;101803.22;;;14.56;69.14
3444;BME280;1736;52.068;6.968;2023-04-16T10:51:51;101812.28;;;14.64;68.63
3444;BME280;1736;52.068;6.968;2023-04-16T10:54:20;101811.25;;;14.45;69.63
3444;BME280;1736;52.068;6.968;2023-04-16T10:56:49;101818.28;;;14.46;68.43
3444;BME280;1736;52.068;6.968;2023-04-16T10:59:28;101809.56;;;14.44;67.99
3444;BME280;1736;52.068;6.968;2023-04-16T11:01:57;101813.00;;;14.35;67.60
3444;BME280;1736;52.068;6.968;2023-04-16T11:04:32;101804.63;;;14.28;68.60
3444;BME280;1736;52.068;6.968;2023-04-16T11:07:00;101812.56;;;14.50;68.12
3444;BME280;1736;52.068;6.968;2023-04-16T11:09:42;101808.09;;;14.51;67.80
3444;BME280;1736;52.068;6.968;2023-04-16T11:12:11;101814.66;;;14.47;67.98
3444;BME280;1736;52.068;6.968;2023-04-16T11:14:39;101809.56;;;14.44;68.92
3444;BME280;1736;52.068;6.968;2023-04-16T11:17:06;101810.81;;;14.07;69.31
3444;BME280;1736;52.068;6.968;2023-04-16T11:19:34;101821.72;;;14.04;69.88
3444;BME280;1736;52.068;6.968;2023-04-16T11:22:01;101810.91;;;14.27;68.13
3444;BME280;1736;52.068;6.968;2023-04-16T11:24:28;101813.88;;;14.24;67.54
3444;BME280;1736;52.068;6.968;2023-04-16T11:26:55;101811.91;;;14.26;68.03
3444;BME280;1736;52.068;6.968;2023-04-16T11:29:22;101805.06;;;14.44;67.17
3444;BME280;1736;52.068;6.968;2023-04-16T11:31:50;101809.53;;;14.55;66.80
3444;BME280;1736;52.068;6.968;2023-04-16T11:34:18;101802.59;;;14.84;66.26
3444;BME280;1736;52.068;6.968;2023-04-16T11:36:45;101810.97;;;14.59;67.17
3444;BME280;1736;52.068;6.968;2023-04-16T11:39:12;101812.47;;;14.41;66.89
3444;BME280;1736;52.068;6.968;2023-04-16T11:41:41;101812.53;;;14.93;65.59
3444;BME280;1736;52.068;6.968;2023-04-16T11:44:19;101813.88;;;14.87;65.56
3444;BME280;1736;52.068;6.968;2023-04-16T11:46:46;101811.66;;;14.92;64.87
3444;BME280;1736;52.068;6.968;2023-04-16T11:49:14;101817.44;;;14.77;66.11
3444;BME280;1736;52.068;6.968;2023-04-16T11:51:42;101818.03;;;14.80;65.61
3444;BME280;1736;52.068;6.968;2023-04-16T11:54:17;101811.34;;;14.86;64.08
3444;BME280;1736;52.068;6.968;2023-04-16T11:56:45;101823.38;;;15.12;64.19
3444;BME280;1736;52.068;6.968;2023-04-16T11:59:14;101820.25;;;14.75;64.07
3444;BME280;1736;52.068;6.968;2023-04-16T12:01:41;101828.22;;;14.86;63.46
3444;BME280;1736;52.068;6.968;2023-04-16T12:04:11;101823.75;;;14.87;63.65
3444;BME280;1736;52.068;6.968;2023-04-16T12:06:39;101819.88;;;15.00;65.69
3444;BME280;1736;52.068;6.968;2023-04-16T12:09:22;101820.16;;;15.18;64.62
3444;BME280;1736;52.068;6.968;2023-04-16T12:11:49;101818.34;;;15.18;64.89
3444;BME280;1736;52.068;6.968;2023-04-16T12:14:15;101830.91;;;15.39;63.42
3444;BME280;1736;52.068;6.968;2023-04-16T12:16:42;101832.63;;;15.08;64.57
3444;BME280;1736;52.068;6.968;2023-04-16T12:19:10;101823.88;;;15.06;63.49
3444;BME280;1736;52.068;6.968;2023-04-16T12:21:40;101826.09;;;15.01;63.76
3444;BME280;1736;52.068;6.968;2023-04-16T12:24:08;101827.16;;;14.78;64.42
3444;BME280;1736;52.068;6.968;2023-04-16T12:26:41;101818.78;;;14.51;65.24
3444;BME280;1736;52.068;6.968;2023-04-16T12:29:16;101826.25;;;14.88;64.78
3444;BME280;1736;52.068;6.968;2023-04-16T12:31:43;101824.34;;;14.79;64.53
3444;BME280;1736;52.068;6.968;2023-04-16T12:34:09;101829.41;;;14.93;64.66
3444;BME280;1736;52.068;6.968;2023-04-16T12:36:36;101822.22;;;14.94;64.07
3444;BME280;1736;52.068;6.968;2023-04-16T12:39:04;101824.41;;;15.00;63.63
3444;BME280;1736;52.068;6.968;2023-04-16T12:41:31;101826.41;;;15.07;64.31
3444;BME280;1736;52.068;6.968;2023-04-16T12:44:06;101820.28;;;15.16;63.17
3444;BME280;1736;52.068;6.968;2023-04-16T12:46:34;101827.78;;;15.02;64.74
3444;BME280;1736;52.068;6.968;2023-04-16T12:49:01;101821.19;;;14.85;63.99
3444;BME280;1736;52.068;6.968;2023-04-16T12:51:27;101820.53;;;14.93;65.03
3444;BME280;1736;52.068;6.968;2023-04-16T12:53:54;101828.22;;;15.07;64.41
3444;BME280;1736;52.068;6.968;2023-04-16T12:56:22;101818.06;;;15.01;64.86
3444;BME280;1736;52.068;6.968;2023-04-16T12:58:48;101825.50;;;14.97;65.92
3444;BME280;1736;52.068;6.968;2023-04-16T13:01:16;101828.44;;;15.15;65.49
3444;BME280;1736;52.068;6.968;2023-04-16T13:03:43;101828.59;;;15.13;64.48
3444;BME280;1736;52.068;6.968;2023-04-16T13:06:10;101828.84;;;15.10;64.13
3444;BME280;1736;52.068;6.968;2023-04-16T13:08:36;101821.28;;;14.95;64.26
3444;BME280;1736;52.068;6.968;2023-04-16T13:11:03;101823.66;;;14.98;63.74
3444;BME280;1736;52.068;6.968;2023-04-16T13:13:31;101826.53;;;15.06;64.46
3444;BME280;1736;52.068;6.968;2023-04-16T13:15:58;101831.66;;;15.29;63.70